createdAt,value
2023-05-05T07:54:45.432Z,20.13
2023-05-05T07:57:31.629Z,18.45
2023-05-05T08:06:28.245Z,18.13
2023-05-05T10:54:00.832Z,18.55
2023-05-05T10:56:47.411Z,19.17
2023-05-05T11:08:24.740Z,11.48
2023-05-05T11:22:56.976Z,5.85
2023-05-05T11:25:52.694Z,31.23
2023-05-05T11:29:28.409Z,32.13
2023-05-05T11:57:25.209Z,8.18
2023-05-05T13:34:11.703Z,10.90
2023-05-05T13:37:05.485Z,16.13
2023-05-05T13:39:59.595Z,8.95
2023-05-05T13:42:48.517Z,7.47
2023-05-05T13:45:35.627Z,15.98
2023-05-05T13:48:30.901Z,8.70
2023-05-05T13:51:29.696Z,8.68
2023-05-05T13:54:51.587Z,9.82
2023-05-05T13:58:08.595Z,9.60
2023-05-05T14:13:23.026Z,14.65
2023-05-05T14:16:09.656Z,11.65
2023-05-05T14:18:56.085Z,16.48
2023-05-05T14:21:45.179Z,12.75
2023-05-05T14:24:34.582Z,19.65
2023-05-05T14:27:41.056Z,13.45
2023-05-05T14:30:27.485Z,8.60
2023-05-05T14:33:25.900Z,12.00
2023-05-05T14:36:12.265Z,12.13
2023-05-05T14:38:59.855Z,11.85
2023-05-05T14:41:46.842Z,8.45
2023-05-05T14:44:33.262Z,8.10
2023-05-05T14:47:19.577Z,12.95
2023-05-05T14:50:09.690Z,12.82
2023-05-05T14:52:56.502Z,15.70
2023-05-05T14:55:42.983Z,12.73
2023-05-05T14:58:35.730Z,9.75
2023-05-05T15:04:11.336Z,11.00
2023-05-05T15:06:57.789Z,9.07
2023-05-05T15:09:44.280Z,12.43
2023-05-05T15:12:42.306Z,7.65
2023-05-05T15:16:03.449Z,9.88
2023-05-05T15:18:50.532Z,12.63
2023-05-05T16:36:37.461Z,13.93
2023-05-05T16:39:24.015Z,13.13
2023-05-05T16:42:10.245Z,8.60
2023-05-05T16:44:56.447Z,76.82
2023-05-05T16:47:42.841Z,69.07
2023-05-05T16:50:29.096Z,60.97
2023-05-05T16:53:15.236Z,90.90
2023-05-05T16:56:01.474Z,20.20
2023-05-05T16:58:47.699Z,14.10
2023-05-05T17:01:34.986Z,12.52
2023-05-05T17:04:21.273Z,12.80
2023-05-05T17:07:28.789Z,10.70
2023-05-05T17:10:18.823Z,12.10
2023-05-05T17:13:14.226Z,15.60
2023-05-05T17:16:33.819Z,20.95
2023-05-05T17:19:54.480Z,14.27
2023-05-05T17:23:04.331Z,8.00
2023-05-05T17:26:05.421Z,25.20
2023-05-05T17:29:12.821Z,19.52
2023-05-05T17:32:02.273Z,22.65
2023-05-05T17:35:04.249Z,17.27
2023-05-05T17:38:58.354Z,16.10
2023-05-05T17:41:18.372Z,22.25
2023-05-05T17:48:07.656Z,11.32
2023-05-05T17:50:53.643Z,27.13
2023-05-05T17:53:59.519Z,26.20
2023-05-05T17:56:51.768Z,14.02
2023-05-05T17:59:43.606Z,15.68
2023-05-05T18:02:29.635Z,58.28
2023-05-05T18:05:16.276Z,36.75
2023-05-05T18:08:02.697Z,65.20
2023-05-05T18:10:49.125Z,52.75
2023-05-05T18:13:37.632Z,60.05
2023-05-05T18:16:23.953Z,62.65
2023-05-05T18:19:12.848Z,26.52
2023-05-05T18:22:01.966Z,36.25
2023-05-05T18:25:32.457Z,24.25
2023-05-05T18:28:34.728Z,20.33
2023-05-05T18:31:32.135Z,30.85
2023-05-05T18:34:33.000Z,35.13
2023-05-05T18:40:45.637Z,43.53
2023-05-05T18:44:01.205Z,36.28
2023-05-05T18:46:50.779Z,26.75
2023-05-05T18:49:46.953Z,30.40
2023-05-05T18:52:43.693Z,27.23
2023-05-05T18:55:41.616Z,31.63
2023-05-05T18:58:39.233Z,37.75
2023-05-05T19:01:25.713Z,43.38
2023-05-05T19:04:26.828Z,45.45
2023-05-05T19:07:42.366Z,49.83
2023-05-05T19:10:39.719Z,50.85
2023-05-05T19:17:13.736Z,39.05
2023-05-05T19:20:12.916Z,27.05
2023-05-05T19:23:03.834Z,52.53
2023-05-05T19:25:56.119Z,71.45
2023-05-05T19:29:11.253Z,40.97
2023-05-05T19:32:01.030Z,17.45
2023-05-05T19:35:04.219Z,29.77
2023-05-05T19:38:04.631Z,38.28
2023-05-05T19:40:51.181Z,32.60
2023-05-05T19:43:40.020Z,34.92
2023-05-05T19:46:26.804Z,27.35
2023-05-05T20:10:28.871Z,35.33
2023-05-05T20:13:24.042Z,28.23
2023-05-05T20:30:30.947Z,30.15
2023-05-05T20:35:19.278Z,25.70
2023-05-05T20:38:44.497Z,23.85
2023-05-05T20:41:42.575Z,23.77
2023-05-05T20:44:54.439Z,26.08
2023-05-05T20:47:51.120Z,29.95
2023-05-05T20:51:34.719Z,34.50
2023-05-05T20:54:51.711Z,28.50
2023-05-05T20:57:51.717Z,34.47
2023-05-05T21:01:13.325Z,53.70
2023-05-05T21:14:21.982Z,19.90
2023-05-05T21:18:29.837Z,18.13
2023-05-05T21:21:28.217Z,18.90
2023-05-05T21:24:39.313Z,17.92
2023-05-05T21:28:24.148Z,19.05
2023-05-05T21:32:35.812Z,13.02
2023-05-05T21:35:11.186Z,11.95
2023-05-05T21:38:05.053Z,12.07
2023-05-05T21:41:12.408Z,15.98
2023-05-05T21:44:05.345Z,14.03
2023-05-05T21:50:15.049Z,12.40
2023-05-05T21:53:05.357Z,11.10
2023-05-05T21:56:31.548Z,13.32
2023-05-05T21:59:22.161Z,9.57
2023-05-05T22:02:19.671Z,14.40
2023-05-05T22:05:42.010Z,8.40
2023-05-05T22:08:54.168Z,10.50
2023-05-05T22:11:54.897Z,9.43
2023-05-05T22:15:09.824Z,11.63
2023-05-05T22:18:48.289Z,10.35
2023-05-05T22:21:18.519Z,11.55
2023-05-05T22:24:14.678Z,8.68
2023-05-05T22:27:14.511Z,12.27
2023-05-05T22:30:15.283Z,11.13
2023-05-05T22:33:08.071Z,12.60
2023-05-05T22:36:10.034Z,14.43
2023-05-05T22:39:42.243Z,12.63
2023-05-05T22:43:06.902Z,15.05
2023-05-05T22:46:02.891Z,11.88
2023-05-05T22:49:12.088Z,10.93
2023-05-05T22:52:11.076Z,15.07
2023-05-05T22:55:10.096Z,14.02
2023-05-05T22:58:18.301Z,10.07
2023-05-05T23:01:29.012Z,13.63
2023-05-05T23:04:22.693Z,11.43
2023-05-05T23:07:16.480Z,12.45
2023-05-05T23:10:13.529Z,10.82
2023-05-05T23:13:18.959Z,11.55
2023-05-05T23:16:20.659Z,10.13
2023-05-05T23:19:15.899Z,10.90
2023-05-05T23:22:42.853Z,13.90
2023-05-05T23:29:01.084Z,11.98
2023-05-05T23:31:58.328Z,11.35
2023-05-05T23:34:52.737Z,12.82
2023-05-05T23:37:55.931Z,12.02
2023-05-05T23:41:09.909Z,9.48
2023-05-05T23:44:09.759Z,15.07
2023-05-05T23:47:03.624Z,15.63
2023-05-05T23:50:04.670Z,13.35
2023-05-05T23:52:51.888Z,14.80
2023-05-05T23:55:42.593Z,13.13
2023-05-05T23:58:32.096Z,11.85
